createdAt,value
2019-03-04T00:05:01.940Z,15.28
2019-03-04T00:10:07.523Z,15.31
2019-03-04T00:15:12.911Z,15.34
2019-03-04T00:20:18.288Z,15.35
2019-03-04T00:25:23.684Z,15.37
2019-03-04T00:30:29.048Z,15.39
2019-03-04T00:35:34.386Z,15.40
2019-03-04T00:40:39.789Z,15.40
2019-03-04T00:45:45.337Z,15.42
2019-03-04T00:50:50.726Z,15.41
2019-03-04T00:55:56.079Z,15.41
2019-03-04T01:01:01.490Z,15.39
2019-03-04T01:06:06.893Z,15.40
2019-03-04T01:11:12.367Z,15.39
2019-03-04T01:16:17.740Z,15.38
2019-03-04T01:21:23.145Z,15.33
2019-03-04T01:26:28.606Z,15.25
2019-03-04T01:31:33.963Z,15.19
2019-03-04T01:36:39.415Z,15.14
2019-03-04T01:41:44.808Z,15.14
2019-03-04T01:46:50.156Z,15.17
2019-03-04T01:51:55.688Z,15.16
2019-03-04T01:57:01.099Z,15.17
2019-03-04T02:02:06.664Z,15.16
2019-03-04T02:07:12.101Z,15.18
2019-03-04T02:12:17.619Z,15.16
2019-03-04T02:17:22.970Z,15.17
2019-03-04T02:22:28.422Z,15.16
2019-03-04T02:27:33.828Z,15.17
2019-03-04T02:32:39.195Z,15.19
2019-03-04T02:37:44.536Z,15.16
2019-03-04T02:42:49.915Z,15.12
2019-03-04T02:47:55.311Z,15.12
2019-03-04T02:53:00.676Z,15.19
2019-03-04T02:58:06.217Z,15.27
2019-03-04T03:03:11.642Z,15.37
2019-03-04T03:08:17.086Z,15.41
2019-03-04T03:13:22.584Z,15.39
2019-03-04T03:18:28.051Z,15.34
2019-03-04T03:23:33.545Z,15.33
2019-03-04T03:28:39.001Z,15.28
2019-03-04T03:33:44.434Z,15.22
2019-03-04T03:38:49.953Z,15.21
2019-03-04T03:43:55.425Z,15.19
2019-03-04T03:49:00.797Z,15.17
2019-03-04T03:54:06.182Z,15.18
2019-03-04T03:59:11.571Z,15.22
2019-03-04T04:04:17.035Z,15.27
2019-03-04T04:09:22.525Z,15.30
2019-03-04T04:14:29.348Z,15.33
2019-03-04T04:19:34.921Z,15.36
2019-03-04T04:24:40.313Z,15.38
2019-03-04T04:29:45.719Z,15.40
2019-03-04T04:34:51.087Z,15.35
2019-03-04T04:39:56.507Z,15.32
2019-03-04T04:45:02.027Z,15.27
2019-03-04T04:50:09.666Z,15.26
2019-03-04T04:55:15.126Z,15.18
2019-03-04T05:00:20.532Z,15.04
2019-03-04T05:05:25.938Z,14.90
2019-03-04T05:10:31.540Z,14.75
2019-03-04T05:15:36.982Z,14.63
2019-03-04T05:20:42.391Z,14.58
2019-03-04T05:25:47.800Z,14.65
2019-03-04T05:30:53.169Z,14.76
2019-03-04T05:35:58.668Z,14.87
2019-03-04T05:41:04.063Z,14.94
2019-03-04T05:46:09.545Z,15.01
2019-03-04T05:51:15.081Z,15.10
2019-03-04T05:56:20.462Z,15.17
2019-03-04T06:01:31.595Z,15.27
2019-03-04T06:07:01.793Z,15.32
2019-03-04T06:12:07.181Z,15.38
2019-03-04T06:17:12.577Z,15.42
2019-03-04T06:22:17.973Z,15.42
2019-03-04T06:27:23.553Z,15.14
2019-03-04T06:32:28.992Z,14.54
2019-03-04T06:37:34.453Z,13.93
2019-03-04T06:42:39.883Z,13.45
2019-03-04T06:47:45.402Z,13.13
2019-03-04T06:52:50.842Z,12.87
2019-03-04T06:57:56.337Z,12.50
2019-03-04T07:03:04.675Z,12.25
2019-03-04T07:08:20.725Z,12.14
2019-03-04T07:13:26.221Z,12.07
2019-03-04T07:18:31.582Z,12.10
2019-03-04T07:23:36.982Z,12.21
2019-03-04T07:28:42.400Z,12.28
2019-03-04T07:33:47.917Z,12.29
2019-03-04T07:39:06.144Z,12.27
2019-03-04T07:44:11.572Z,12.31
2019-03-04T07:49:16.951Z,12.41
2019-03-04T07:54:22.395Z,12.99
2019-03-04T07:59:30.118Z,13.98
2019-03-04T08:04:35.542Z,13.95
2019-03-04T08:10:36.597Z,13.77
2019-03-04T08:15:51.845Z,13.84
2019-03-04T08:20:57.340Z,13.84
2019-03-04T08:26:03.183Z,13.81
2019-03-04T08:31:09.207Z,13.84
2019-03-04T08:36:15.048Z,13.94
2019-03-04T08:41:20.451Z,17.59
2019-03-04T08:46:25.897Z,21.45
2019-03-04T08:51:31.270Z,24.08
2019-03-04T08:56:36.708Z,25.13
2019-03-04T09:01:42.343Z,24.43
2019-03-04T09:06:47.742Z,22.79
2019-03-04T09:11:53.238Z,21.01
2019-03-04T09:16:59.038Z,19.10
2019-03-04T09:22:04.487Z,17.66
2019-03-04T09:27:09.924Z,17.00
2019-03-04T09:32:15.304Z,16.47
2019-03-04T09:37:20.880Z,16.18
2019-03-04T09:42:28.171Z,16.41
2019-03-04T09:47:33.513Z,16.43
2019-03-04T09:52:38.994Z,16.41
2019-03-04T09:57:44.421Z,16.10
2019-03-04T10:02:49.921Z,16.01
2019-03-04T10:08:33.677Z,15.92
2019-03-04T10:14:30.343Z,16.25
2019-03-04T10:20:25.550Z,16.94
2019-03-04T10:26:22.591Z,17.35
2019-03-04T10:31:56.533Z,17.26
2019-03-04T10:37:31.943Z,17.24
2019-03-04T10:43:38.914Z,17.28
2019-03-04T10:48:44.348Z,17.01
2019-03-04T10:53:49.790Z,16.72
2019-03-04T10:58:55.178Z,16.38
2019-03-04T11:04:00.572Z,16.16
2019-03-04T11:09:07.733Z,15.98
2019-03-04T11:14:13.364Z,15.70
2019-03-04T11:19:18.762Z,15.54
2019-03-04T11:24:24.140Z,15.61
2019-03-04T11:29:29.626Z,15.52
2019-03-04T11:34:35.102Z,15.38
2019-03-04T11:39:46.684Z,15.34
2019-03-04T11:44:52.108Z,15.25
2019-03-04T11:49:57.479Z,14.92
2019-03-04T11:55:02.870Z,14.22
2019-03-04T12:00:17.744Z,13.68
2019-03-04T12:05:23.124Z,13.04
2019-03-04T12:10:28.472Z,12.41
2019-03-04T12:15:33.813Z,11.98
2019-03-04T12:20:39.201Z,11.75
2019-03-04T12:25:44.598Z,11.63
2019-03-04T12:30:49.975Z,11.60
2019-03-04T12:35:55.425Z,11.61
2019-03-04T12:41:00.779Z,11.60
2019-03-04T12:46:06.748Z,11.62
2019-03-04T12:51:12.078Z,11.76
2019-03-04T12:56:17.481Z,12.05
2019-03-04T13:01:22.901Z,12.52
2019-03-04T13:06:28.296Z,13.06
2019-03-04T13:11:33.655Z,13.53
2019-03-04T13:16:39.030Z,13.88
2019-03-04T13:21:44.421Z,14.20
2019-03-04T13:26:49.874Z,14.41
2019-03-04T13:31:55.257Z,14.53
2019-03-04T13:37:00.597Z,14.58
2019-03-04T13:42:06.003Z,14.32
2019-03-04T13:47:11.605Z,13.98
2019-03-04T13:52:17.038Z,13.69
2019-03-04T13:57:22.370Z,13.61
2019-03-04T14:02:27.734Z,13.74
2019-03-04T14:07:33.199Z,13.87
2019-03-04T14:12:38.574Z,13.85
2019-03-04T14:17:43.937Z,13.87
2019-03-04T14:22:57.315Z,13.91
2019-03-04T14:27:56.465Z,13.95
2019-03-04T14:33:01.861Z,13.97
2019-03-04T14:38:07.227Z,13.88
2019-03-04T14:43:12.695Z,13.81
2019-03-04T14:48:18.278Z,13.81
2019-03-04T14:53:23.641Z,13.88
2019-03-04T14:58:29.039Z,13.93
2019-03-04T15:03:34.475Z,13.82
2019-03-04T15:08:39.870Z,13.68
2019-03-04T15:13:46.227Z,13.58
2019-03-04T15:18:51.688Z,13.48
2019-03-04T15:23:57.265Z,13.35
2019-03-04T15:29:02.671Z,13.30
2019-03-04T15:34:08.130Z,13.18
2019-03-04T15:39:22.877Z,13.01
2019-03-04T15:44:23.876Z,12.95
2019-03-04T15:49:29.431Z,13.00
2019-03-04T15:54:34.915Z,13.08
2019-03-04T15:59:40.278Z,13.05
2019-03-04T16:04:45.753Z,13.04
2019-03-04T16:09:51.802Z,12.99
2019-03-04T16:14:57.185Z,12.90
2019-03-04T16:20:02.564Z,12.77
2019-03-04T16:25:08.714Z,12.70
2019-03-04T16:30:17.486Z,12.69
2019-03-04T16:35:23.412Z,12.66
2019-03-04T16:40:29.662Z,12.59
2019-03-04T16:45:36.895Z,12.45
2019-03-04T16:50:44.742Z,12.28
2019-03-04T16:55:51.204Z,12.15
2019-03-04T17:00:57.131Z,11.99
2019-03-04T17:06:07.819Z,11.83
2019-03-04T17:11:16.872Z,11.70
2019-03-04T17:16:26.944Z,11.58
2019-03-04T17:21:33.747Z,11.45
2019-03-04T17:26:41.358Z,11.31
2019-03-04T17:31:49.794Z,11.20
2019-03-04T17:36:56.634Z,11.10
2019-03-04T17:42:02.587Z,11.01
2019-03-04T17:47:08.027Z,10.98
2019-03-04T17:52:13.470Z,10.94
2019-03-04T17:57:18.946Z,10.92
2019-03-04T18:02:24.341Z,10.93
2019-03-04T18:07:29.769Z,10.93
2019-03-04T18:12:35.126Z,10.93
2019-03-04T18:17:40.506Z,10.93
2019-03-04T18:22:45.915Z,10.89
2019-03-04T18:27:56.006Z,10.87
2019-03-04T18:34:07.235Z,10.83
2019-03-04T18:40:13.907Z,10.75
2019-03-04T18:46:22.568Z,10.69
2019-03-04T18:51:30.037Z,10.64
2019-03-04T18:56:35.444Z,10.58
2019-03-04T19:01:40.816Z,10.50
2019-03-04T19:06:46.193Z,10.45
2019-03-04T19:11:51.661Z,10.39
2019-03-04T19:16:57.015Z,10.29
2019-03-04T19:22:02.350Z,10.30
2019-03-04T19:27:07.703Z,10.27
2019-03-04T19:32:13.105Z,10.22
2019-03-04T19:37:18.516Z,10.16
2019-03-04T19:42:23.940Z,10.08
2019-03-04T19:47:29.349Z,10.02
2019-03-04T19:52:34.721Z,9.96
2019-03-04T19:57:41.969Z,9.86
2019-03-04T20:02:48.192Z,9.80
2019-03-04T20:07:53.637Z,9.75
2019-03-04T20:12:59.093Z,9.75
2019-03-04T20:18:04.493Z,9.82
2019-03-04T20:23:09.840Z,9.97
2019-03-04T20:28:16.967Z,10.17
2019-03-04T20:33:22.369Z,10.32
2019-03-04T20:38:33.315Z,10.46
2019-03-04T20:43:38.742Z,10.56
2019-03-04T20:48:44.268Z,10.65
2019-03-04T20:53:49.785Z,10.70
2019-03-04T20:58:55.154Z,10.66
2019-03-04T21:04:00.507Z,10.57
2019-03-04T21:09:07.280Z,10.52
2019-03-04T21:14:12.665Z,10.52
2019-03-04T21:19:18.078Z,10.49
2019-03-04T21:24:23.410Z,10.45
2019-03-04T21:30:30.249Z,10.40
2019-03-04T21:36:16.019Z,10.31
2019-03-04T21:42:17.582Z,10.29
2019-03-04T21:47:40.907Z,10.25
2019-03-04T21:53:18.277Z,10.25
2019-03-04T21:58:23.641Z,10.28
2019-03-04T22:03:33.511Z,10.29
2019-03-04T22:08:38.902Z,10.32
2019-03-04T22:13:44.262Z,10.31
2019-03-04T22:18:49.679Z,10.28
2019-03-04T22:23:55.057Z,10.28
2019-03-04T22:29:00.466Z,10.33
2019-03-04T22:34:05.927Z,10.33
2019-03-04T22:39:11.284Z,10.36
2019-03-04T22:44:16.706Z,10.44
2019-03-04T22:49:22.069Z,10.53
2019-03-04T22:54:29.095Z,10.55
2019-03-04T22:59:34.614Z,10.55
2019-03-04T23:05:10.255Z,10.64
2019-03-04T23:10:44.070Z,10.78
2019-03-04T23:15:51.619Z,10.73
2019-03-04T23:20:57.009Z,10.64
2019-03-04T23:26:02.583Z,10.50
2019-03-04T23:31:08.628Z,10.42
2019-03-04T23:36:14.019Z,10.40
2019-03-04T23:41:19.815Z,10.41
2019-03-04T23:46:25.209Z,10.47
2019-03-04T23:51:30.603Z,10.48
2019-03-04T23:56:36.009Z,10.36
